Durango, CO

7:55 PM MDT on September 23, 2014 (GMT -0600)
AMPT test site | Change Station
CLOSE
Current Station
Personal Weather Station
Location: Durango, CO
Elevation: 6696 ft
Nearby Weather Stations

Elev 6696 ft 37.16 °N, 107.74 °W | Updated 58 seconds ago

Clear
Clear
68.0 °F
Feels Like 68.0 °F
N
4.0
Wind Variable Wind from SW
Gusts 7.0 mph

Today
High -- | Low -- °F
--% Chance of Precip.
Yesterday
High -- | Low -- °F
Precip. -- in
6:59 AM 7:06 PM
Waning Crescent, 0% visible
Pressure 30.05 in
Visibility 10.0 miles
Clouds Clear
Dew Point 41 °F
Humidity 38%
Rainfall -999.00 in
Snow Depth 0 in , 0 in , 0 in
UV 0 out of 12
Pollen 5.70 out of 12
Air Quality Not available.
Flu Activity Not available.
METAR KDRO 240053Z AUTO 27011KT 10SM CLR 22/04 A3023 RMK AO2 SLP174 T02170044

More Conditions Fewer Conditions

Pressure 30.05 in
Visibility 10.0 miles
Clouds Clear
Dew Point 41 °F
Humidity 38%
Rainfall -999.00 in
Snow Depth 0 in , 0 in , 0 in
UV 0 out of 12
Pollen 5.70 out of 12
Air Quality Not available.
Flu Activity Not available.
METAR KDRO 240053Z AUTO 27011KT 10SM CLR 22/04 A3023 RMK AO2 SLP174 T02170044

More Conditions Fewer Conditions

10-Day Weather Forecast

Almanac

Astronomy

Sep. 23, 2014 Rise Set
Actual Time 6:59 AM MDT 7:06 PM MDT
Civil Twilight 6:33 AM MDT 7:32 PM MDT
Nautical Twilight 6:03 AM MDT 8:02 PM MDT
Astronomical Twilight 5:32 AM MDT 8:33 PM MDT
Moon 6:26 AM MDT (9/23) 6:47 PM MDT (9/23)
Length of Visible Light 12h 58m
Length of Day
12h 06m
Tomorrow will be 2m 22s shorter.
Waning Crescent, 0% of the Moon is Illuminated
Today
Waning Crescent
Sep 24
New
Oct 1
First Quarter
Oct 8
Full
Oct 15
Last Quarter

Today's Extremes

State Highs State Lows

Community

WunderPhotos

Upload Photos

1,755,844 photos uploaded!

Nearby

Snow Depth

Station Depth Elevation
Never Summer 0 in 10280 ft
North Lost Trail 0 in 9200 ft
Zirkel 0 in 9340 ft
Medano Pass 0 in 9620 ft
Roach 0 in 9700 ft

Earthquake Activity

City Distance Mag. Time & Date
No recent earthquake activity has been reported nearby.
Minimum magnitude displayed is 2.5.

Coastal Water Temperatures

Place Temperature
No Stations Reporting

Nearby Weather Stations